Jacksonville, FL (32218)

10:14 PM EDT on April 26, 2015 (GMT -0400)
San Mateo | | Change Station
CLOSE
Current Station
Personal Weather Station
Location: Jacksonville, FL
Elevation: 36 ft
Nearby Weather Stations

Elev 36 ft 30.44 °N, 81.63 °W | Updated 17 seconds ago

Mostly Cloudy
Mostly Cloudy
80.2 °F
Feels Like 82 °F
N
0.0
Wind Variable Wind from WSW
Gusts 0.0 mph

Today
High -- | Low -- °F
--% Chance of Precip.
Yesterday
High -- | Low -- °F
Precip. -- in
6:47 AM 8:01 PM
First Quarter, 60% visible
Pressure 29.69 in
Visibility 10.0 miles
Clouds Few 5500 ft
Mostly Cloudy 11000 ft
Mostly Cloudy 22000 ft
Heat Index 82 °F
Dew Point 65 °F
Humidity 59%
Rainfall 0.00 in
Snow Depth Not available.
UV 0 out of 12
Pollen 6.00 out of 12
Air Quality Not available.
Flu Activity Local Activity
METAR KJAX 270156Z 25006KT 10SM FEW055 BKN110 BKN220 26/21 A2969 RMK AO2 SLP053 T02560206

More Conditions Fewer Conditions

Pressure 29.69 in
Visibility 10.0 miles
Clouds Few 5500 ft
Mostly Cloudy 11000 ft
Mostly Cloudy 22000 ft
Heat Index 82 °F
Dew Point 65 °F
Humidity 59%
Rainfall 0.00 in
Snow Depth Not available.
UV 0 out of 12
Pollen 6.00 out of 12
Air Quality Not available.
Flu Activity Local Activity
METAR KJAX 270156Z 25006KT 10SM FEW055 BKN110 BKN220 26/21 A2969 RMK AO2 SLP053 T02560206

More Conditions Fewer Conditions

The full scope of the disaster following a powerful 7.8-magnitude earthquake in Nepal may not come into view for days, but global charities are already sending emergency aid. Click to see how you can help.

10-Day Weather Forecast

Almanac

Astronomy

Apr. 26, 2015 Rise Set
Actual Time
Civil Twilight
Nautical Twilight
Astronomical Twilight
Moon
Length of Visible Light
Length of Day
Tomorrow will be .
, % of the Moon is Illuminated

Today's Extremes

State Highs State Lows

Community

WunderPhotos

Upload Photos

1,817,204 photos uploaded!

WunderBlogs® & News

Nearby

Air Quality

  Air Quality AQ Index Pollutant
Not available.

Snow Depth

Station Depth Elevation

Earthquake Activity

City Distance Mag. Time & Date
Minimum magnitude displayed is 2.5.

Coastal Water Temperatures

Place Temperature

Stations

Nearby Weather Stations

Station Location Temp. Windchill Dew Point Humidity Wind Precip. Elev Updated Type